ROMMA est une association bénévole à but non lucratif. Votre soutien est indispensable : ADHERER à ROMMA ou FAIRE un DON

Crest - (26, Drôme)

Vallée de la Drôme (315 m)   Longitude: 5°2' E   Latitude: 44°44' N Station partenaire n°62
 

Détail journalier du     <<     >>

Température Precipitation Humidité Pression Vent Dir Rafale Dir. rafale Ensol.
Heure (°C) (mm) (%) (hPa) (km/h) (km/h) (min)
01:00 15.605710189SSO19SSO0
02:00 14.606110189SSO23SSO0
03:00 14.705910189SSO19SSO0
04:00 15.2056101810SSO21SSO0
05:00 13.9063101712SSO29SSO0
06:00 13.1068101714SSO27SSO0
07:00 12.6071101715SSO27SSO0
08:00 12.9070101711SSO23SSO0
09:00 14.606510188NE23SO12
10:00 17.7053101713SSO27SSO53
11:00 19.1047101718SSO44SSO60
12:00 20.3044101722SSO56NE60
13:00 21.7039101720NE44SO60
14:00 22.6035101622SSO52N60
15:00 23.3030101622N48NNO60
16:00 24.1028101519N40N60
17:00 24.2030101519N40NNO60
18:00 24.3030101517N42NNO60
19:00 23.6031101516N37N60
20:00 22.6034101512NE29N14
21:00 20.404010153SSO13NE0
22:00 19.404410162SSO6SSO0
23:00 17.804910162SSE6SSE0
minuit 16.405610162SE6SE0

Graphique du 14-08-2019

 

Serveur OMMA